sensor_id;sensor_type;location;lat;lon;timestamp;pressure;altitude;pressure_sealevel;temperature
73734;BMP280;62039;50.000;9.064;2024-01-06T00:01:28;99135.03;;;5.13
73734;BMP280;62039;50.000;9.064;2024-01-06T00:03:55;99135.03;;;5.13
73734;BMP280;62039;50.000;9.064;2024-01-06T00:06:23;99137.72;;;5.11
73734;BMP280;62039;50.000;9.064;2024-01-06T00:08:50;99129.97;;;5.11
73734;BMP280;62039;50.000;9.064;2024-01-06T00:11:20;99133.53;;;5.10
73734;BMP280;62039;50.000;9.064;2024-01-06T00:13:48;99136.09;;;5.10
73734;BMP280;62039;50.000;9.064;2024-01-06T00:16:16;99143.06;;;5.09
73734;BMP280;62039;50.000;9.064;2024-01-06T00:18:47;99143.06;;;5.09
73734;BMP280;62039;50.000;9.064;2024-01-06T00:21:14;99146.59;;;5.08
73734;BMP280;62039;50.000;9.064;2024-01-06T00:23:41;99144.16;;;5.07
73734;BMP280;62039;50.000;9.064;2024-01-06T00:26:09;99139.16;;;5.05
73734;BMP280;62039;50.000;9.064;2024-01-06T00:28:37;99143.66;;;5.03
73734;BMP280;62039;50.000;9.064;2024-01-06T00:31:04;99147.22;;;5.02
73734;BMP280;62039;50.000;9.064;2024-01-06T00:33:31;99150.91;;;5.00
73734;BMP280;62039;50.000;9.064;2024-01-06T00:36:01;99154.63;;;4.97
73734;BMP280;62039;50.000;9.064;2024-01-06T00:38:28;99157.38;;;4.96
73734;BMP280;62039;50.000;9.064;2024-01-06T00:40:55;99153.28;;;4.93
73734;BMP280;62039;50.000;9.064;2024-01-06T00:43:22;99156.88;;;4.92
73734;BMP280;62039;50.000;9.064;2024-01-06T00:45:49;99156.88;;;4.92
73734;BMP280;62039;50.000;9.064;2024-01-06T00:48:16;99150.06;;;4.91
73734;BMP280;62039;50.000;9.064;2024-01-06T00:50:43;99150.88;;;4.92
73734;BMP280;62039;50.000;9.064;2024-01-06T00:53:12;99162.03;;;4.92
73734;BMP280;62039;50.000;9.064;2024-01-06T00:55:39;99156.88;;;4.92
73734;BMP280;62039;50.000;9.064;2024-01-06T00:58:06;99155.09;;;4.93
73734;BMP280;62039;50.000;9.064;2024-01-06T01:00:33;99153.28;;;4.93
73734;BMP280;62039;50.000;9.064;2024-01-06T01:03:00;99152.50;;;4.93
73734;BMP280;62039;50.000;9.064;2024-01-06T01:05:27;99153.28;;;4.93
73734;BMP280;62039;50.000;9.064;2024-01-06T01:07:54;99164.47;;;4.94
73734;BMP280;62039;50.000;9.064;2024-01-06T01:10:24;99156.69;;;4.94
73734;BMP280;62039;50.000;9.064;2024-01-06T01:12:51;99153.28;;;4.93
73734;BMP280;62039;50.000;9.064;2024-01-06T01:15:18;99157.50;;;4.94
73734;BMP280;62039;50.000;9.064;2024-01-06T01:17:45;99164.47;;;4.94
73734;BMP280;62039;50.000;9.064;2024-01-06T01:20:12;99164.47;;;4.94
73734;BMP280;62039;50.000;9.064;2024-01-06T01:22:39;99158.47;;;4.93
73734;BMP280;62039;50.000;9.064;2024-01-06T01:25:06;99168.81;;;4.93
73734;BMP280;62039;50.000;9.064;2024-01-06T01:27:36;99168.81;;;4.93
73734;BMP280;62039;50.000;9.064;2024-01-06T01:30:03;99171.41;;;4.93
73734;BMP280;62039;50.000;9.064;2024-01-06T01:32:31;99172.41;;;4.92
73734;BMP280;62039;50.000;9.064;2024-01-06T01:34:58;99172.41;;;4.92
73734;BMP280;62039;50.000;9.064;2024-01-06T01:37:25;99171.59;;;4.92
73734;BMP280;62039;50.000;9.064;2024-01-06T01:39:52;99177.72;;;4.91
73734;BMP280;62039;50.000;9.064;2024-01-06T01:42:19;99173.50;;;4.90
73734;BMP280;62039;50.000;9.064;2024-01-06T01:44:48;99175.94;;;4.91
73734;BMP280;62039;50.000;9.064;2024-01-06T01:47:15;99176.91;;;4.90
73734;BMP280;62039;50.000;9.064;2024-01-06T01:49:42;99174.31;;;4.90
73734;BMP280;62039;50.000;9.064;2024-01-06T01:52:09;99187.25;;;4.90
73734;BMP280;62039;50.000;9.064;2024-01-06T01:54:36;99174.31;;;4.90
73734;BMP280;62039;50.000;9.064;2024-01-06T01:57:04;99184.66;;;4.90
73734;BMP280;62039;50.000;9.064;2024-01-06T01:59:31;99181.13;;;4.91
73734;BMP280;62039;50.000;9.064;2024-01-06T02:02:01;99188.88;;;4.91
73734;BMP280;62039;50.000;9.064;2024-01-06T02:04:28;99187.13;;;4.92
73734;BMP280;62039;50.000;9.064;2024-01-06T02:06:55;99192.94;;;4.94
73734;BMP280;62039;50.000;9.064;2024-01-06T02:09:22;99197.28;;;4.93
73734;BMP280;62039;50.000;9.064;2024-01-06T02:11:49;99189.53;;;4.93
73734;BMP280;62039;50.000;9.064;2024-01-06T02:14:16;99194.69;;;4.93
73734;BMP280;62039;50.000;9.064;2024-01-06T02:16:43;99198.09;;;4.94
73734;BMP280;62039;50.000;9.064;2024-01-06T02:19:13;99197.16;;;4.95
73734;BMP280;62039;50.000;9.064;2024-01-06T02:21:43;99191.97;;;4.95
73734;BMP280;62039;50.000;9.064;2024-01-06T02:24:13;99203.94;;;4.96
73734;BMP280;62039;50.000;9.064;2024-01-06T02:26:40;99199.59;;;4.96
73734;BMP280;62039;50.000;9.064;2024-01-06T02:29:07;99191.00;;;4.96
73734;BMP280;62039;50.000;9.064;2024-01-06T02:31:34;99193.59;;;4.96
73734;BMP280;62039;50.000;9.064;2024-01-06T02:34:01;99191.16;;;4.94
73734;BMP280;62039;50.000;9.064;2024-01-06T02:36:28;99197.97;;;4.95
73734;BMP280;62039;50.000;9.064;2024-01-06T02:38:55;99202.19;;;4.96
73734;BMP280;62039;50.000;9.064;2024-01-06T02:41:25;99204.75;;;4.96
73734;BMP280;62039;50.000;9.064;2024-01-06T02:43:52;99194.41;;;4.96
73734;BMP280;62039;50.000;9.064;2024-01-06T02:46:19;99194.41;;;4.96
73734;BMP280;62039;50.000;9.064;2024-01-06T02:48:45;99196.84;;;4.98
73734;BMP280;62039;50.000;9.064;2024-01-06T02:51:12;99194.28;;;4.98
73734;BMP280;62039;50.000;9.064;2024-01-06T02:53:39;99199.44;;;4.98
73734;BMP280;62039;50.000;9.064;2024-01-06T02:56:09;99213.19;;;4.98
73734;BMP280;62039;50.000;9.064;2024-01-06T02:58:39;99218.38;;;4.98
73734;BMP280;62039;50.000;9.064;2024-01-06T03:01:06;99220.16;;;4.98
73734;BMP280;62039;50.000;9.064;2024-01-06T03:03:33;99224.38;;;4.99
73734;BMP280;62039;50.000;9.064;2024-01-06T03:06:00;99225.19;;;4.99
73734;BMP280;62039;50.000;9.064;2024-01-06T03:08:27;99229.38;;;5.00
73734;BMP280;62039;50.000;9.064;2024-01-06T03:10:54;99224.06;;;5.02
73734;BMP280;62039;50.000;9.064;2024-01-06T03:13:21;99228.41;;;5.01
73734;BMP280;62039;50.000;9.064;2024-01-06T03:15:51;99237.66;;;5.04
73734;BMP280;62039;50.000;9.064;2024-01-06T03:18:18;99235.06;;;5.04
73734;BMP280;62039;50.000;9.064;2024-01-06T03:20:45;99231.69;;;5.03
73734;BMP280;62039;50.000;9.064;2024-01-06T03:23:12;99231.69;;;5.03
73734;BMP280;62039;50.000;9.064;2024-01-06T03:25:39;99240.13;;;5.05
73734;BMP280;62039;50.000;9.064;2024-01-06T03:28:05;99240.13;;;5.05
73734;BMP280;62039;50.000;9.064;2024-01-06T03:30:32;99232.97;;;5.07
73734;BMP280;62039;50.000;9.064;2024-01-06T03:33:02;99239.78;;;5.08
73734;BMP280;62039;50.000;9.064;2024-01-06T03:35:29;99244.16;;;5.08
73734;BMP280;62039;50.000;9.064;2024-01-06T03:37:56;99239.13;;;5.06
73734;BMP280;62039;50.000;9.064;2024-01-06T03:40:23;99241.72;;;5.06
73734;BMP280;62039;50.000;9.064;2024-01-06T03:42:50;99243.34;;;5.07
73734;BMP280;62039;50.000;9.064;2024-01-06T03:45:17;99250.16;;;5.08
73734;BMP280;62039;50.000;9.064;2024-01-06T03:47:44;99239.78;;;5.08
73734;BMP280;62039;50.000;9.064;2024-01-06T03:50:14;99243.06;;;5.10
73734;BMP280;62039;50.000;9.064;2024-01-06T03:52:41;99246.47;;;5.11
73734;BMP280;62039;50.000;9.064;2024-01-06T03:55:08;99249.84;;;5.12
73734;BMP280;62039;50.000;9.064;2024-01-06T03:57:35;99248.94;;;5.13
73734;BMP280;62039;50.000;9.064;2024-01-06T04:00:03;99249.56;;;5.15
73734;BMP280;62039;50.000;9.064;2024-01-06T04:02:30;99250.38;;;5.15
73734;BMP280;62039;50.000;9.064;2024-01-06T04:04:57;99253.66;;;5.17
73734;BMP280;62039;50.000;9.064;2024-01-06T04:07:27;99255.41;;;5.17
73734;BMP280;62039;50.000;9.064;2024-01-06T04:09:54;99252.84;;;5.17
73734;BMP280;62039;50.000;9.064;2024-01-06T04:12:21;99254.47;;;5.18
73734;BMP280;62039;50.000;9.064;2024-01-06T04:14:48;99261.28;;;5.19
73734;BMP280;62039;50.000;9.064;2024-01-06T04:17:14;99257.06;;;5.18
73734;BMP280;62039;50.000;9.064;2024-01-06T04:19:41;99263.84;;;5.19
73734;BMP280;62039;50.000;9.064;2024-01-06T04:22:08;99269.84;;;5.19
73734;BMP280;62039;50.000;9.064;2024-01-06T04:24:38;99268.88;;;5.20
73734;BMP280;62039;50.000;9.064;2024-01-06T04:27:05;99257.72;;;5.20
73734;BMP280;62039;50.000;9.064;2024-01-06T04:29:32;99259.31;;;5.21
73734;BMP280;62039;50.000;9.064;2024-01-06T04:31:59;99263.84;;;5.19
73734;BMP280;62039;50.000;9.064;2024-01-06T04:34:26;99258.50;;;5.20
73734;BMP280;62039;50.000;9.064;2024-01-06T04:36:53;99259.31;;;5.21
73734;BMP280;62039;50.000;9.064;2024-01-06T04:39:20;99263.53;;;5.22
73734;BMP280;62039;50.000;9.064;2024-01-06T04:41:49;99256.59;;;5.22
73734;BMP280;62039;50.000;9.064;2024-01-06T04:44:19;99252.09;;;5.24
73734;BMP280;62039;50.000;9.064;2024-01-06T04:46:46;99252.91;;;5.25
73734;BMP280;62039;50.000;9.064;2024-01-06T04:49:13;99252.91;;;5.25
73734;BMP280;62039;50.000;9.064;2024-01-06T04:51:40;99263.91;;;5.27
73734;BMP280;62039;50.000;9.064;2024-01-06T04:54:07;99256.78;;;5.29
73734;BMP280;62039;50.000;9.064;2024-01-06T04:56:34;99256.78;;;5.29
73734;BMP280;62039;50.000;9.064;2024-01-06T04:59:05;99259.38;;;5.29
73734;BMP280;62039;50.000;9.064;2024-01-06T05:01:32;99259.38;;;5.29
73734;BMP280;62039;50.000;9.064;2024-01-06T05:03:59;99265.22;;;5.31
73734;BMP280;62039;50.000;9.064;2024-01-06T05:06:26;99267.81;;;5.31
73734;BMP280;62039;50.000;9.064;2024-01-06T05:08:53;99259.09;;;5.32
73734;BMP280;62039;50.000;9.064;2024-01-06T05:11:20;99265.91;;;5.33
73734;BMP280;62039;50.000;9.064;2024-01-06T05:13:47;99260.56;;;5.34
73734;BMP280;62039;50.000;9.064;2024-01-06T05:16:16;99252.63;;;5.36
73734;BMP280;62039;50.000;9.064;2024-01-06T05:18:43;99265.59;;;5.36
73734;BMP280;62039;50.000;9.064;2024-01-06T05:21:10;99264.63;;;5.37
73734;BMP280;62039;50.000;9.064;2024-01-06T05:23:37;99264.63;;;5.37
73734;BMP280;62039;50.000;9.064;2024-01-06T05:26:04;99261.91;;;5.38
73734;BMP280;62039;50.000;9.064;2024-01-06T05:28:31;99267.88;;;5.39
73734;BMP280;62039;50.000;9.064;2024-01-06T05:30:58;99276.47;;;5.39
73734;BMP280;62039;50.000;9.064;2024-01-06T05:33:28;99278.88;;;5.41
73734;BMP280;62039;50.000;9.064;2024-01-06T05:35:55;99278.75;;;5.42
73734;BMP280;62039;50.000;9.064;2024-01-06T05:38:22;99285.56;;;5.43
73734;BMP280;62039;50.000;9.064;2024-01-06T05:40:49;99285.56;;;5.43
73734;BMP280;62039;50.000;9.064;2024-01-06T05:43:16;99290.59;;;5.45
73734;BMP280;62039;50.000;9.064;2024-01-06T05:45:43;99294.00;;;5.45
73734;BMP280;62039;50.000;9.064;2024-01-06T05:48:10;99299.16;;;5.45
73734;BMP280;62039;50.000;9.064;2024-01-06T05:50:40;99300.81;;;5.46
73734;BMP280;62039;50.000;9.064;2024-01-06T05:53:07;99296.41;;;5.47
73734;BMP280;62039;50.000;9.064;2024-01-06T05:55:34;99295.44;;;5.48
73734;BMP280;62039;50.000;9.064;2024-01-06T05:58:01;99298.84;;;5.48
73734;BMP280;62039;50.000;9.064;2024-01-06T06:00:28;99295.31;;;5.49
73734;BMP280;62039;50.000;9.064;2024-01-06T06:02:55;99293.53;;;5.50
73734;BMP280;62039;50.000;9.064;2024-01-06T06:05:22;99286.72;;;5.49
73734;BMP280;62039;50.000;9.064;2024-01-06T06:07:52;99296.41;;;5.47
73734;BMP280;62039;50.000;9.064;2024-01-06T06:10:19;99308.72;;;5.45
73734;BMP280;62039;50.000;9.064;2024-01-06T06:12:46;99316.50;;;5.45
73734;BMP280;62039;50.000;9.064;2024-01-06T06:15:13;99314.84;;;5.44
73734;BMP280;62039;50.000;9.064;2024-01-06T06:17:40;99321.81;;;5.43
73734;BMP280;62039;50.000;9.064;2024-01-06T06:20:07;99322.63;;;5.44
73734;BMP280;62039;50.000;9.064;2024-01-06T06:22:34;99329.44;;;5.45
73734;BMP280;62039;50.000;9.064;2024-01-06T06:25:05;99324.91;;;5.47
73734;BMP280;62039;50.000;9.064;2024-01-06T06:27:32;99330.09;;;5.47
73734;BMP280;62039;50.000;9.064;2024-01-06T06:29:59;99330.25;;;5.45
73734;BMP280;62039;50.000;9.064;2024-01-06T06:32:26;99336.25;;;5.46
73734;BMP280;62039;50.000;9.064;2024-01-06T06:34:53;99336.06;;;5.47
73734;BMP280;62039;50.000;9.064;2024-01-06T06:37:20;99340.28;;;5.48
73734;BMP280;62039;50.000;9.064;2024-01-06T06:39:47;99342.75;;;5.50
73734;BMP280;62039;50.000;9.064;2024-01-06T06:42:16;99342.59;;;5.52
73734;BMP280;62039;50.000;9.064;2024-01-06T06:44:43;99344.38;;;5.51
73734;BMP280;62039;50.000;9.064;2024-01-06T06:47:10;99346.00;;;5.52
73734;BMP280;62039;50.000;9.064;2024-01-06T06:49:37;99356.38;;;5.52
73734;BMP280;62039;50.000;9.064;2024-01-06T06:52:04;99357.19;;;5.53
73734;BMP280;62039;50.000;9.064;2024-01-06T06:54:31;99359.59;;;5.54
73734;BMP280;62039;50.000;9.064;2024-01-06T06:56:58;99360.41;;;5.55
73734;BMP280;62039;50.000;9.064;2024-01-06T06:59:28;99361.22;;;5.55
73734;BMP280;62039;50.000;9.064;2024-01-06T07:01:55;99360.41;;;5.55
73734;BMP280;62039;50.000;9.064;2024-01-06T07:04:22;99370.78;;;5.55
73734;BMP280;62039;50.000;9.064;2024-01-06T07:06:49;99382.78;;;5.56
73734;BMP280;62039;50.000;9.064;2024-01-06T07:09:17;99382.91;;;5.54
73734;BMP280;62039;50.000;9.064;2024-01-06T07:11:48;99384.72;;;5.54
73734;BMP280;62039;50.000;9.064;2024-01-06T07:14:15;99391.50;;;5.55
73734;BMP280;62039;50.000;9.064;2024-01-06T07:16:44;99393.94;;;5.56
73734;BMP280;62039;50.000;9.064;2024-01-06T07:19:11;99393.94;;;5.56
73734;BMP280;62039;50.000;9.064;2024-01-06T07:21:38;99394.63;;;5.58
73734;BMP280;62039;50.000;9.064;2024-01-06T07:24:05;99399.00;;;5.58
73734;BMP280;62039;50.000;9.064;2024-01-06T07:26:32;99398.03;;;5.59
73734;BMP280;62039;50.000;9.064;2024-01-06T07:28:59;99398.03;;;5.59
73734;BMP280;62039;50.000;9.064;2024-01-06T07:31:26;99408.41;;;5.59
73734;BMP280;62039;50.000;9.064;2024-01-06T07:33:56;99410.03;;;5.60
73734;BMP280;62039;50.000;9.064;2024-01-06T07:36:23;99417.94;;;5.58
73734;BMP280;62039;50.000;9.064;2024-01-06T07:38:50;99427.47;;;5.58
73734;BMP280;62039;50.000;9.064;2024-01-06T07:41:17;99440.28;;;5.59
73734;BMP280;62039;50.000;9.064;2024-01-06T07:43:44;99435.13;;;5.59
73734;BMP280;62039;50.000;9.064;2024-01-06T07:46:11;99437.03;;;5.57
73734;BMP280;62039;50.000;9.064;2024-01-06T07:48:37;99434.44;;;5.57
73734;BMP280;62039;50.000;9.064;2024-01-06T07:51:07;99439.63;;;5.57
73734;BMP280;62039;50.000;9.064;2024-01-06T07:53:34;99449.16;;;5.57
73734;BMP280;62039;50.000;9.064;2024-01-06T07:56:01;99450.13;;;5.56
73734;BMP280;62039;50.000;9.064;2024-01-06T07:58:28;99446.56;;;5.57
73734;BMP280;62039;50.000;9.064;2024-01-06T08:00:57;99447.41;;;5.57
73734;BMP280;62039;50.000;9.064;2024-01-06T08:03:24;99454.34;;;5.57
73734;BMP280;62039;50.000;9.064;2024-01-06T08:05:51;99456.94;;;5.57
73734;BMP280;62039;50.000;9.064;2024-01-06T08:08:21;99462.94;;;5.57
73734;BMP280;62039;50.000;9.064;2024-01-06T08:10:48;99459.38;;;5.58
73734;BMP280;62039;50.000;9.064;2024-01-06T08:13:14;99463.75;;;5.58
73734;BMP280;62039;50.000;9.064;2024-01-06T08:15:41;99465.25;;;5.60
73734;BMP280;62039;50.000;9.064;2024-01-06T08:18:08;99465.91;;;5.62
73734;BMP280;62039;50.000;9.064;2024-01-06T08:20:35;99464.94;;;5.63
73734;BMP280;62039;50.000;9.064;2024-01-06T08:23:03;99473.38;;;5.65
73734;BMP280;62039;50.000;9.064;2024-01-06T08:25:32;99476.63;;;5.67
73734;BMP280;62039;50.000;9.064;2024-01-06T08:27:59;99472.25;;;5.68
73734;BMP280;62039;50.000;9.064;2024-01-06T08:30:26;99469.50;;;5.69
73734;BMP280;62039;50.000;9.064;2024-01-06T08:32:53;99478.91;;;5.70
73734;BMP280;62039;50.000;9.064;2024-01-06T08:35:20;99486.56;;;5.72
73734;BMP280;62039;50.000;9.064;2024-01-06T08:37:47;99492.56;;;5.72
73734;BMP280;62039;50.000;9.064;2024-01-06T08:40:14;99496.78;;;5.73
73734;BMP280;62039;50.000;9.064;2024-01-06T08:42:44;99500.97;;;5.74
73734;BMP280;62039;50.000;9.064;2024-01-06T08:45:11;99489.66;;;5.75
73734;BMP280;62039;50.000;9.064;2024-01-06T08:47:38;99500.00;;;5.75
73734;BMP280;62039;50.000;9.064;2024-01-06T08:50:06;99499.06;;;5.76
73734;BMP280;62039;50.000;9.064;2024-01-06T08:52:33;99504.25;;;5.76
73734;BMP280;62039;50.000;9.064;2024-01-06T08:55:00;99500.69;;;5.77
73734;BMP280;62039;50.000;9.064;2024-01-06T08:57:27;99499.06;;;5.76
73734;BMP280;62039;50.000;9.064;2024-01-06T08:59:57;99514.59;;;5.76
73734;BMP280;62039;50.000;9.064;2024-01-06T09:02:24;99513.78;;;5.76
73734;BMP280;62039;50.000;9.064;2024-01-06T09:04:51;99515.56;;;5.75
73734;BMP280;62039;50.000;9.064;2024-01-06T09:07:18;99518.97;;;5.76
73734;BMP280;62039;50.000;9.064;2024-01-06T09:09:45;99517.34;;;5.75
73734;BMP280;62039;50.000;9.064;2024-01-06T09:12:11;99521.72;;;5.74
73734;BMP280;62039;50.000;9.064;2024-01-06T09:14:38;99527.88;;;5.73
73734;BMP280;62039;50.000;9.064;2024-01-06T09:17:08;99533.69;;;5.75
73734;BMP280;62039;50.000;9.064;2024-01-06T09:19:35;99531.13;;;5.75
73734;BMP280;62039;50.000;9.064;2024-01-06T09:22:02;99532.59;;;5.78
73734;BMP280;62039;50.000;9.064;2024-01-06T09:24:29;99538.28;;;5.81
73734;BMP280;62039;50.000;9.064;2024-01-06T09:26:56;99534.59;;;5.84
73734;BMP280;62039;50.000;9.064;2024-01-06T09:29:23;99545.66;;;5.86
73734;BMP280;62039;50.000;9.064;2024-01-06T09:31:50;99542.75;;;5.89
73734;BMP280;62039;50.000;9.064;2024-01-06T09:34:20;99544.22;;;5.92
73734;BMP280;62039;50.000;9.064;2024-01-06T09:36:47;99545.88;;;5.93
73734;BMP280;62039;50.000;9.064;2024-01-06T09:39:14;99554.28;;;5.95
73734;BMP280;62039;50.000;9.064;2024-01-06T09:41:41;99551.41;;;5.98
73734;BMP280;62039;50.000;9.064;2024-01-06T09:44:08;99550.44;;;5.99
73734;BMP280;62039;50.000;9.064;2024-01-06T09:46:34;99554.69;;;6.00
73734;BMP280;62039;50.000;9.064;2024-01-06T09:49:01;99551.13;;;6.01
73734;BMP280;62039;50.000;9.064;2024-01-06T09:51:31;99550.81;;;6.04
73734;BMP280;62039;50.000;9.064;2024-01-06T09:54:00;99558.59;;;6.04
73734;BMP280;62039;50.000;9.064;2024-01-06T09:56:28;99560.22;;;6.05
73734;BMP280;62039;50.000;9.064;2024-01-06T09:58:55;99562.81;;;6.05
73734;BMP280;62039;50.000;9.064;2024-01-06T10:01:22;99567.03;;;6.06
73734;BMP280;62039;50.000;9.064;2024-01-06T10:03:49;99565.91;;;6.08
73734;BMP280;62039;50.000;9.064;2024-01-06T10:06:17;99564.97;;;6.09
73734;BMP280;62039;50.000;9.064;2024-01-06T10:08:48;99567.41;;;6.11
73734;BMP280;62039;50.000;9.064;2024-01-06T10:11:16;99567.41;;;6.11
73734;BMP280;62039;50.000;9.064;2024-01-06T10:13:43;99569.84;;;6.12
73734;BMP280;62039;50.000;9.064;2024-01-06T10:16:10;99574.09;;;6.13
73734;BMP280;62039;50.000;9.064;2024-01-06T10:18:37;99576.38;;;6.16
73734;BMP280;62039;50.000;9.064;2024-01-06T10:21:05;99578.81;;;6.18
73734;BMP280;62039;50.000;9.064;2024-01-06T10:23:33;99576.91;;;6.20
73734;BMP280;62039;50.000;9.064;2024-01-06T10:26:03;99566.22;;;6.23
73734;BMP280;62039;50.000;9.064;2024-01-06T10:28:31;99566.88;;;6.25
73734;BMP280;62039;50.000;9.064;2024-01-06T10:30:58;99561.38;;;6.28
73734;BMP280;62039;50.000;9.064;2024-01-06T10:33:25;99561.22;;;6.29
73734;BMP280;62039;50.000;9.064;2024-01-06T10:35:53;99577.31;;;6.33
73734;BMP280;62039;50.000;9.064;2024-01-06T10:38:20;99560.81;;;6.34
73734;BMP280;62039;50.000;9.064;2024-01-06T10:40:56;99563.91;;;6.38
73734;BMP280;62039;50.000;9.064;2024-01-06T10:43:26;99560.22;;;6.40
73734;BMP280;62039;50.000;9.064;2024-01-06T10:45:55;99567.00;;;6.41
73734;BMP280;62039;50.000;9.064;2024-01-06T10:48:24;99560.56;;;6.45
73734;BMP280;62039;50.000;9.064;2024-01-06T10:50:52;99553.47;;;6.47
73734;BMP280;62039;50.000;9.064;2024-01-06T10:53:21;99554.94;;;6.50
73734;BMP280;62039;50.000;9.064;2024-01-06T10:55:49;99552.03;;;6.53
73734;BMP280;62039;50.000;9.064;2024-01-06T10:58:21;99552.53;;;6.56
73734;BMP280;62039;50.000;9.064;2024-01-06T11:00:51;99543.78;;;6.57
73734;BMP280;62039;50.000;9.064;2024-01-06T11:03:19;99555.66;;;6.60
73734;BMP280;62039;50.000;9.064;2024-01-06T11:05:47;99546.72;;;6.62
73734;BMP280;62039;50.000;9.064;2024-01-06T11:08:15;99543.84;;;6.65
73734;BMP280;62039;50.000;9.064;2024-01-06T11:10:44;99538.31;;;6.68
73734;BMP280;62039;50.000;9.064;2024-01-06T11:13:13;99536.41;;;6.71
73734;BMP280;62039;50.000;9.064;2024-01-06T11:15:42;99529.28;;;6.73
73734;BMP280;62039;50.000;9.064;2024-01-06T11:18:30;99542.94;;;6.75
73734;BMP280;62039;50.000;9.064;2024-01-06T11:21:16;99537.41;;;6.78
73734;BMP280;62039;50.000;9.064;2024-01-06T11:23:43;99537.94;;;6.81
73734;BMP280;62039;50.000;9.064;2024-01-06T11:26:10;99535.84;;;6.85
73734;BMP280;62039;50.000;9.064;2024-01-06T11:28:43;99539.72;;;6.89
73734;BMP280;62039;50.000;9.064;2024-01-06T11:31:10;99537.81;;;6.91
73734;BMP280;62039;50.000;9.064;2024-01-06T11:33:43;99540.75;;;6.96
73734;BMP280;62039;50.000;9.064;2024-01-06T11:36:11;99546.47;;;6.99
73734;BMP280;62039;50.000;9.064;2024-01-06T11:38:38;99536.56;;;7.03
73734;BMP280;62039;50.000;9.064;2024-01-06T11:41:06;99537.91;;;7.07
73734;BMP280;62039;50.000;9.064;2024-01-06T11:43:34;99536.75;;;7.10
73734;BMP280;62039;50.000;9.064;2024-01-06T11:46:01;99537.25;;;7.13
73734;BMP280;62039;50.000;9.064;2024-01-06T11:48:29;99536.94;;;7.16
73734;BMP280;62039;50.000;9.064;2024-01-06T11:50:59;99532.41;;;7.18
73734;BMP280;62039;50.000;9.064;2024-01-06T11:53:26;99527.06;;;7.20
73734;BMP280;62039;50.000;9.064;2024-01-06T11:55:54;99529.50;;;7.21
73734;BMP280;62039;50.000;9.064;2024-01-06T11:58:20;99530.97;;;7.24
73734;BMP280;62039;50.000;9.064;2024-01-06T12:00:55;99538.44;;;7.27
73734;BMP280;62039;50.000;9.064;2024-01-06T12:03:22;99530.50;;;7.28
73734;BMP280;62039;50.000;9.064;2024-01-06T12:06:02;99523.34;;;7.30
73734;BMP280;62039;50.000;9.064;2024-01-06T12:08:30;99523.03;;;7.33
73734;BMP280;62039;50.000;9.064;2024-01-06T12:11:03;99519.47;;;7.34
73734;BMP280;62039;50.000;9.064;2024-01-06T12:13:30;99526.31;;;7.35
73734;BMP280;62039;50.000;9.064;2024-01-06T12:15:57;99514.91;;;7.36
73734;BMP280;62039;50.000;9.064;2024-01-06T12:18:25;99522.56;;;7.38
73734;BMP280;62039;50.000;9.064;2024-01-06T12:20:52;99521.59;;;7.39
73734;BMP280;62039;50.000;9.064;2024-01-06T12:23:28;99519.81;;;7.39
73734;BMP280;62039;50.000;9.064;2024-01-06T12:25:55;99518.84;;;7.40
73734;BMP280;62039;50.000;9.064;2024-01-06T12:28:22;99520.47;;;7.41
73734;BMP280;62039;50.000;9.064;2024-01-06T12:30:49;99516.88;;;7.42
73734;BMP280;62039;50.000;9.064;2024-01-06T12:33:16;99515.75;;;7.45
73734;BMP280;62039;50.000;9.064;2024-01-06T12:35:44;99526.00;;;7.46
73734;BMP280;62039;50.000;9.064;2024-01-06T12:38:11;99517.25;;;7.48
73734;BMP280;62039;50.000;9.064;2024-01-06T12:40:40;99524.69;;;7.51
73734;BMP280;62039;50.000;9.064;2024-01-06T12:43:07;99516.91;;;7.51
73734;BMP280;62039;50.000;9.064;2024-01-06T12:45:34;99522.78;;;7.53
73734;BMP280;62039;50.000;9.064;2024-01-06T12:48:01;99523.59;;;7.53
73734;BMP280;62039;50.000;9.064;2024-01-06T12:50:28;99521.69;;;7.55
73734;BMP280;62039;50.000;9.064;2024-01-06T12:52:55;99529.28;;;7.57
73734;BMP280;62039;50.000;9.064;2024-01-06T12:55:22;99533.38;;;7.59
73734;BMP280;62039;50.000;9.064;2024-01-06T12:57:52;99530.75;;;7.59
73734;BMP280;62039;50.000;9.064;2024-01-06T13:00:19;99534.19;;;7.60
73734;BMP280;62039;50.000;9.064;2024-01-06T13:02:46;99536.78;;;7.60
73734;BMP280;62039;50.000;9.064;2024-01-06T13:05:13;99534.19;;;7.60
73734;BMP280;62039;50.000;9.064;2024-01-06T13:07:40;99534.19;;;7.60
73734;BMP280;62039;50.000;9.064;2024-01-06T13:10:08;99541.00;;;7.61
73734;BMP280;62039;50.000;9.064;2024-01-06T13:12:35;99537.44;;;7.62
73734;BMP280;62039;50.000;9.064;2024-01-06T13:15:06;99540.84;;;7.62
73734;BMP280;62039;50.000;9.064;2024-01-06T13:17:33;99543.28;;;7.64
73734;BMP280;62039;50.000;9.064;2024-01-06T13:20:00;99540.69;;;7.64
73734;BMP280;62039;50.000;9.064;2024-01-06T13:22:27;99548.47;;;7.64
73734;BMP280;62039;50.000;9.064;2024-01-06T13:24:54;99552.69;;;7.65
73734;BMP280;62039;50.000;9.064;2024-01-06T13:27:21;99553.38;;;7.67
73734;BMP280;62039;50.000;9.064;2024-01-06T13:29:48;99555.97;;;7.67
73734;BMP280;62039;50.000;9.064;2024-01-06T13:32:17;99562.78;;;7.68
73734;BMP280;62039;50.000;9.064;2024-01-06T13:34:44;99557.59;;;7.68
73734;BMP280;62039;50.000;9.064;2024-01-06T13:37:12;99564.44;;;7.69
73734;BMP280;62039;50.000;9.064;2024-01-06T13:39:39;99560.84;;;7.70
73734;BMP280;62039;50.000;9.064;2024-01-06T13:42:06;99566.84;;;7.70
73734;BMP280;62039;50.000;9.064;2024-01-06T13:44:33;99571.06;;;7.71
73734;BMP280;62039;50.000;9.064;2024-01-06T13:47:00;99574.50;;;7.72
73734;BMP280;62039;50.000;9.064;2024-01-06T13:49:29;99572.72;;;7.72
73734;BMP280;62039;50.000;9.064;2024-01-06T13:51:56;99568.31;;;7.73
73734;BMP280;62039;50.000;9.064;2024-01-06T13:54:23;99565.72;;;7.73
73734;BMP280;62039;50.000;9.064;2024-01-06T13:56:51;99568.31;;;7.73
73734;BMP280;62039;50.000;9.064;2024-01-06T13:59:18;99570.91;;;7.73
73734;BMP280;62039;50.000;9.064;2024-01-06T14:01:45;99573.53;;;7.73
73734;BMP280;62039;50.000;9.064;2024-01-06T14:04:12;99573.38;;;7.74
73734;BMP280;62039;50.000;9.064;2024-01-06T14:06:41;99569.00;;;7.75
73734;BMP280;62039;50.000;9.064;2024-01-06T14:09:08;99570.59;;;7.76
73734;BMP280;62039;50.000;9.064;2024-01-06T14:11:35;99573.84;;;7.78
73734;BMP280;62039;50.000;9.064;2024-01-06T14:14:02;99564.41;;;7.77
73734;BMP280;62039;50.000;9.064;2024-01-06T14:16:30;99569.47;;;7.78
73734;BMP280;62039;50.000;9.064;2024-01-06T14:18:57;99565.91;;;7.79
73734;BMP280;62039;50.000;9.064;2024-01-06T14:21:24;99568.34;;;7.81
73734;BMP280;62039;50.000;9.064;2024-01-06T14:23:54;99578.59;;;7.82